Time;durP1;ratioP1;P1;durP2;ratioP2;P2;SDS_P1;SDS_P2;PMS_P1;PMS_P2;Temp;Humidity;BMP_temperature;BMP_pressure;BME280_temperature;BME280_humidity;BME280_pressure;Samples;Min_cycle;Max_cycle;Signal;HPM_P1;HPM_P2
2023/12/08 00:01:49;;;;;;;36.22;17.73;;;1.80;99.90;;;;;;6186314;23;20015;-83
2023/12/08 00:04:18;;;;;;;35.63;17.25;;;1.70;99.90;;;;;;6159962;23;20025;-83
2023/12/08 00:06:44;;;;;;;32.42;16.20;;;1.80;99.90;;;;;;6159566;23;20020;-83
2023/12/08 00:09:09;;;;;;;35.65;18.10;;;1.80;99.90;;;;;;6159464;23;20021;-82
2023/12/08 00:11:37;;;;;;;37.22;15.98;;;1.80;99.90;;;;;;6159696;23;20017;-83
2023/12/08 00:14:03;;;;;;;36.85;15.73;;;1.80;99.90;;;;;;6160151;23;20017;-83
2023/12/08 00:16:29;;;;;;;36.50;16.30;;;1.80;99.90;;;;;;6159539;23;20099;-83
2023/12/08 00:18:57;;;;;;;39.60;17.25;;;1.80;99.90;;;;;;6159681;23;20410;-83
2023/12/08 00:21:25;;;;;;;33.30;15.65;;;1.80;99.90;;;;;;6159580;23;20092;-83
2023/12/08 00:23:51;;;;;;;33.47;17.67;;;1.80;99.90;;;;;;6159576;23;20357;-83
2023/12/08 00:26:17;;;;;;;33.67;16.50;;;1.80;99.90;;;;;;6159538;23;20020;-83
2023/12/08 00:28:44;;;;;;;35.50;17.58;;;1.80;99.90;;;;;;6159592;23;20013;-83
2023/12/08 00:31:10;;;;;;;30.70;14.80;;;1.80;99.90;;;;;;6185857;23;20052;-83
2023/12/08 00:33:36;;;;;;;35.78;15.70;;;1.80;99.90;;;;;;6159494;23;20024;-83
2023/12/08 00:36:13;;;;;;;37.67;18.10;;;1.80;99.90;;;;;;6186156;23;20016;-83
2023/12/08 00:38:39;;;;;;;39.15;18.20;;;1.80;99.90;;;;;;6159437;23;20059;-83
2023/12/08 00:41:05;;;;;;;37.10;16.73;;;1.70;99.90;;;;;;6159241;23;20017;-83
2023/12/08 00:43:30;;;;;;;40.72;17.10;;;1.60;99.90;;;;;;6159141;23;20048;-83
2023/12/08 00:45:58;;;;;;;35.00;16.90;;;1.70;99.90;;;;;;6159382;23;20356;-82
2023/12/08 00:48:23;;;;;;;38.80;19.40;;;1.70;99.90;;;;;;6158967;23;20096;-83
2023/12/08 00:50:52;;;;;;;39.38;18.70;;;1.70;99.90;;;;;;6159311;23;20055;-83
2023/12/08 00:53:18;;;;;;;31.73;15.65;;;1.70;99.90;;;;;;6161335;23;20059;-83
2023/12/08 00:55:44;;;;;;;35.83;16.60;;;1.70;99.90;;;;;;6161228;23;20048;-82
2023/12/08 00:58:11;;;;;;;34.70;18.63;;;1.60;99.90;;;;;;6161290;23;20017;-82
2023/12/08 01:00:37;;;;;;;39.83;16.85;;;1.60;99.90;;;;;;6161700;23;20020;-82
2023/12/08 01:03:03;;;;;;;39.45;17.40;;;1.60;99.90;;;;;;6161181;23;20021;-82
2023/12/08 01:05:28;;;;;;;33.30;16.38;;;1.70;99.90;;;;;;6160708;23;20021;-83
2023/12/08 01:07:54;;;;;;;34.40;16.00;;;1.60;99.90;;;;;;6161213;23;20441;-83
2023/12/08 01:10:20;;;;;;;40.05;18.75;;;1.60;99.90;;;;;;6161103;23;20025;-83
2023/12/08 01:27:30;;;;;;;36.42;17.75;;;1.50;99.90;;;;;;6187912;23;20015;-83
2023/12/08 01:29:55;;;;;;;31.70;16.95;;;1.50;99.90;;;;;;6161404;23;20100;-83
2023/12/08 01:32:21;;;;;;;30.77;14.55;;;1.50;99.90;;;;;;6161050;23;20377;-83
2023/12/08 01:34:46;;;;;;;37.53;16.38;;;1.50;99.90;;;;;;6161015;23;20021;-83
2023/12/08 01:37:12;;;;;;;35.50;16.80;;;1.50;99.90;;;;;;6161071;23;20024;-83
2023/12/08 01:39:38;;;;;;;35.35;18.05;;;1.50;99.90;;;;;;6187592;23;20021;-83
2023/12/08 01:42:04;;;;;;;34.28;16.17;;;1.50;99.90;;;;;;6160918;23;20071;-82
2023/12/08 01:44:29;;;;;;;33.95;16.30;;;1.50;99.90;;;;;;6160811;23;20349;-83
2023/12/08 01:46:55;;;;;;;39.08;18.90;;;1.50;99.90;;;;;;6160660;23;20023;-83
2023/12/08 01:49:23;;;;;;;35.25;17.30;;;1.50;99.90;;;;;;6160676;23;20025;-83
2023/12/08 01:51:49;;;;;;;36.88;17.48;;;1.50;99.90;;;;;;6160655;23;20318;-83
2023/12/08 01:54:16;;;;;;;36.53;16.83;;;1.50;99.90;;;;;;6160712;23;20052;-82
2023/12/08 01:56:42;;;;;;;33.05;16.13;;;1.50;99.90;;;;;;6161290;23;20076;-82
2023/12/08 01:59:08;;;;;;;35.72;16.33;;;1.50;99.90;;;;;;6160557;23;20025;-82
2023/12/08 02:01:35;;;;;;;35.85;16.70;;;1.50;99.90;;;;;;6161283;23;20023;-83
2023/12/08 02:04:02;;;;;;;35.47;17.45;;;1.50;99.90;;;;;;6160394;23;20017;-83
2023/12/08 02:06:27;;;;;;;33.83;15.90;;;1.50;99.90;;;;;;6160628;23;20067;-83
2023/12/08 02:08:53;;;;;;;33.83;17.52;;;1.50;99.90;;;;;;6160604;23;20020;-83
2023/12/08 02:11:19;;;;;;;33.15;17.23;;;1.50;99.90;;;;;;6160526;23;20465;-83
2023/12/08 02:13:45;;;;;;;35.30;16.42;;;1.50;99.90;;;;;;6160542;23;20020;-83
2023/12/08 02:16:33;;;;;;;35.78;17.40;;;1.50;99.90;;;;;;6160614;23;20091;-83
2023/12/08 02:18:59;;;;;;;34.70;17.10;;;1.50;99.90;;;;;;6160724;23;20048;-83
2023/12/08 02:21:26;;;;;;;32.83;16.27;;;1.50;99.90;;;;;;6160594;23;20100;-83
2023/12/08 02:23:51;;;;;;;35.28;17.40;;;1.40;99.90;;;;;;6160466;23;20055;-83
2023/12/08 02:26:19;;;;;;;35.95;17.98;;;1.50;99.90;;;;;;6186925;23;20017;-83
2023/12/08 02:28:45;;;;;;;28.33;14.98;;;1.50;99.90;;;;;;6160397;23;20013;-83
2023/12/08 02:31:15;;;;;;;36.95;17.02;;;1.50;99.90;;;;;;6160434;23;20461;-83
2023/12/08 02:33:45;;;;;;;34.35;17.00;;;1.40;99.90;;;;;;6160343;23;20407;-83
2023/12/08 02:36:20;;;;;;;33.60;17.48;;;1.40;99.90;;;;;;6160285;23;20099;-83
2023/12/08 02:38:47;;;;;;;35.67;17.67;;;1.40;99.90;;;;;;6160253;23;20013;-83
2023/12/08 02:41:13;;;;;;;36.05;18.45;;;1.40;99.90;;;;;;6160425;23;20028;-83
2023/12/08 02:43:39;;;;;;;34.58;16.98;;;1.40;99.90;;;;;;6160946;23;20021;-83
2023/12/08 02:46:06;;;;;;;40.03;18.25;;;1.40;99.90;;;;;;6160271;23;20024;-83
2023/12/08 02:48:31;;;;;;;36.65;16.83;;;1.40;99.90;;;;;;6159953;23;20014;-83
2023/12/08 02:50:57;;;;;;;35.42;16.58;;;1.40;99.90;;;;;;6160122;23;20048;-83
2023/12/08 02:53:23;;;;;;;38.00;17.38;;;1.50;99.90;;;;;;6160200;23;20055;-83
2023/12/08 02:55:48;;;;;;;36.95;17.00;;;1.40;99.90;;;;;;6160233;23;20028;-83
2023/12/08 02:58:14;;;;;;;39.60;18.02;;;1.40;99.90;;;;;;6160248;23;20017;-83
2023/12/08 03:00:39;;;;;;;35.30;17.73;;;1.40;99.90;;;;;;6186979;23;20017;-83
2023/12/08 03:03:05;;;;;;;37.28;18.13;;;1.40;99.90;;;;;;6160125;23;20021;-83
2023/12/08 03:05:31;;;;;;;37.88;18.67;;;1.40;99.90;;;;;;6159931;23;20052;-83
2023/12/08 03:07:56;;;;;;;41.72;18.15;;;1.40;99.90;;;;;;6160139;23;20017;-83
2023/12/08 03:10:22;;;;;;;39.67;18.23;;;1.40;99.90;;;;;;6159748;23;20024;-83
2023/12/08 03:12:47;;;;;;;34.92;16.95;;;1.30;99.90;;;;;;6186577;23;20087;-83
2023/12/08 03:15:13;;;;;;;39.58;18.35;;;1.40;99.90;;;;;;6159716;23;20020;-83
2023/12/08 03:17:39;;;;;;;37.03;17.58;;;1.40;99.90;;;;;;6160059;23;20017;-83
2023/12/08 03:20:05;;;;;;;39.53;19.35;;;1.30;99.90;;;;;;6159997;23;20017;-82
2023/12/08 03:22:30;;;;;;;39.13;20.23;;;1.30;99.90;;;;;;6159951;23;20052;-83
2023/12/08 03:24:56;;;;;;;38.65;19.35;;;1.30;99.90;;;;;;6159957;23;20096;-83
2023/12/08 03:27:22;;;;;;;36.42;18.17;;;1.30;99.90;;;;;;6160533;23;20028;-83
2023/12/08 03:29:50;;;;;;;33.05;16.85;;;1.40;99.90;;;;;;6159650;23;20017;-83
2023/12/08 03:32:15;;;;;;;41.50;18.80;;;1.40;99.90;;;;;;6159642;23;20017;-83
2023/12/08 03:34:41;;;;;;;35.10;18.50;;;1.40;99.90;;;;;;6160012;23;20028;-83
2023/12/08 03:37:07;;;;;;;36.60;16.92;;;1.30;99.90;;;;;;6159774;23;20013;-83
2023/12/08 03:39:32;;;;;;;35.35;16.95;;;1.30;99.90;;;;;;6159863;23;20025;-83
2023/12/08 03:41:58;;;;;;;32.58;17.23;;;1.40;99.90;;;;;;6159815;23;20337;-83
2023/12/08 03:44:23;;;;;;;39.60;19.55;;;1.40;99.90;;;;;;6159890;23;20452;-83
2023/12/08 03:46:49;;;;;;;37.88;18.77;;;1.40;99.90;;;;;;6159818;23;20017;-83
2023/12/08 03:49:15;;;;;;;35.17;17.88;;;1.40;99.90;;;;;;6159399;23;20395;-83
2023/12/08 03:51:41;;;;;;;35.70;17.70;;;1.40;99.90;;;;;;6159932;23;20105;-83
2023/12/08 03:54:07;;;;;;;36.75;17.77;;;1.40;99.90;;;;;;6159710;23;20441;-83
2023/12/08 03:56:35;;;;;;;37.92;18.15;;;1.40;99.90;;;;;;6159721;23;20028;-83
2023/12/08 03:59:01;;;;;;;34.85;17.02;;;1.40;99.90;;;;;;6159654;23;20017;-83
2023/12/08 04:01:26;;;;;;;35.00;17.10;;;1.40;99.90;;;;;;6159751;23;20021;-83
2023/12/08 04:03:52;;;;;;;35.15;15.68;;;1.40;99.90;;;;;;6159752;23;20022;-83
2023/12/08 04:06:18;;;;;;;33.35;17.73;;;1.40;99.90;;;;;;6159447;23;20028;-83
2023/12/08 04:08:43;;;;;;;38.97;18.58;;;1.40;99.90;;;;;;6159552;23;20013;-83
2023/12/08 04:11:09;;;;;;;35.35;15.90;;;1.40;99.90;;;;;;6159455;23;20082;-83
2023/12/08 04:13:38;;;;;;;34.45;17.08;;;1.50;99.90;;;;;;6159505;23;20028;-83
2023/12/08 04:16:04;;;;;;;33.67;17.40;;;1.50;99.90;;;;;;6159479;23;20092;-84
2023/12/08 04:18:30;;;;;;;36.08;17.80;;;1.50;99.90;;;;;;6159609;23;20021;-83
2023/12/08 04:20:55;;;;;;;37.00;15.73;;;1.40;99.90;;;;;;6159543;23;20044;-83
2023/12/08 04:23:21;;;;;;;39.67;20.00;;;1.50;99.90;;;;;;6159542;23;20013;-83
2023/12/08 04:25:46;;;;;;;35.88;17.23;;;1.50;99.90;;;;;;6160471;23;20017;-83
2023/12/08 04:28:12;;;;;;;32.33;16.30;;;1.50;99.90;;;;;;6161634;23;20028;-83
2023/12/08 04:30:37;;;;;;;32.72;15.85;;;1.50;99.90;;;;;;6161504;23;20084;-83
2023/12/08 04:33:03;;;;;;;38.90;16.85;;;1.40;99.90;;;;;;6161642;23;20464;-83
2023/12/08 04:35:29;;;;;;;37.63;17.35;;;1.50;99.90;;;;;;6161534;23;20029;-82
2023/12/08 04:37:54;;;;;;;35.53;17.05;;;1.50;99.90;;;;;;6161613;23;20017;-82
2023/12/08 04:40:20;;;;;;;35.97;16.85;;;1.50;99.90;;;;;;6162241;23;20353;-82
2023/12/08 04:42:45;;;;;;;35.30;15.68;;;1.40;99.90;;;;;;6188090;23;20430;-82
2023/12/08 04:45:13;;;;;;;32.05;16.42;;;1.40;99.90;;;;;;6162178;23;20039;-82
2023/12/08 04:47:40;;;;;;;30.85;15.63;;;1.40;99.90;;;;;;6161123;23;20025;-82
2023/12/08 04:50:07;;;;;;;39.25;18.83;;;1.40;99.90;;;;;;6161276;23;20104;-82
2023/12/08 04:52:32;;;;;;;34.80;16.73;;;1.40;99.90;;;;;;6188055;23;20088;-82
2023/12/08 04:54:58;;;;;;;37.60;16.13;;;1.40;99.90;;;;;;6161360;23;20055;-82
2023/12/08 04:57:24;;;;;;;35.35;16.98;;;1.30;99.90;;;;;;6161431;23;20013;-82
2023/12/08 04:59:50;;;;;;;35.53;18.02;;;1.40;99.90;;;;;;6161247;23;20021;-82
2023/12/08 05:02:16;;;;;;;36.03;16.70;;;1.40;99.90;;;;;;6161220;23;20021;-82
2023/12/08 05:04:42;;;;;;;34.72;16.98;;;1.40;99.90;;;;;;6161300;23;20044;-82
2023/12/08 05:07:07;;;;;;;34.10;17.25;;;1.30;99.90;;;;;;6161864;23;20019;-82
2023/12/08 05:09:33;;;;;;;32.85;16.23;;;1.40;99.90;;;;;;6161124;23;20124;-82
2023/12/08 05:11:58;;;;;;;34.17;16.30;;;1.40;99.90;;;;;;6161285;23;20021;-82
2023/12/08 05:14:24;;;;;;;36.88;17.52;;;1.40;99.90;;;;;;6161178;23;20476;-82
2023/12/08 05:16:50;;;;;;;33.70;16.05;;;1.30;99.90;;;;;;6161239;23;20083;-82
2023/12/08 05:19:16;;;;;;;36.97;16.08;;;1.40;99.90;;;;;;6161160;23;20013;-82
2023/12/08 05:21:42;;;;;;;33.88;15.68;;;1.40;99.90;;;;;;6161175;23;20024;-82
2023/12/08 05:24:08;;;;;;;34.42;16.30;;;1.40;99.90;;;;;;6161218;23;20017;-82
2023/12/08 05:26:34;;;;;;;39.13;17.65;;;1.30;99.90;;;;;;6187953;23;20017;-82
2023/12/08 05:28:59;;;;;;;37.35;17.30;;;1.30;99.90;;;;;;6160991;23;20341;-82
2023/12/08 05:31:25;;;;;;;38.28;16.77;;;1.30;99.90;;;;;;6161124;23;20064;-83
2023/12/08 05:33:50;;;;;;;34.22;16.95;;;1.30;99.90;;;;;;6160942;23;20013;-83
2023/12/08 05:36:17;;;;;;;37.88;19.00;;;1.30;99.90;;;;;;6161072;23;20025;-83
2023/12/08 05:38:43;;;;;;;38.50;17.45;;;1.30;99.90;;;;;;6160617;23;20024;-83
2023/12/08 05:41:08;;;;;;;36.95;16.92;;;1.30;99.90;;;;;;6160791;23;20028;-83
2023/12/08 05:43:34;;;;;;;34.28;16.70;;;1.30;99.90;;;;;;6160925;23;20092;-83
2023/12/08 05:46:00;;;;;;;35.72;17.00;;;1.20;99.90;;;;;;6160962;23;20020;-83
2023/12/08 05:48:25;;;;;;;36.05;17.48;;;1.20;99.90;;;;;;6160644;23;20017;-83
2023/12/08 05:50:51;;;;;;;36.15;16.73;;;1.30;99.90;;;;;;6160658;23;20021;-83
2023/12/08 05:53:16;;;;;;;38.70;17.55;;;1.20;99.90;;;;;;6160842;23;20037;-83
2023/12/08 05:55:42;;;;;;;35.08;17.02;;;1.20;99.90;;;;;;6160338;23;20021;-83
2023/12/08 05:58:08;;;;;;;38.85;17.80;;;1.20;99.90;;;;;;6187314;23;20017;-83
2023/12/08 06:00:33;;;;;;;38.40;19.40;;;1.20;99.90;;;;;;6160805;23;20060;-83
2023/12/08 06:02:59;;;;;;;39.40;18.02;;;1.20;99.90;;;;;;6160762;23;20021;-83
2023/12/08 06:05:25;;;;;;;44.00;18.23;;;1.20;99.90;;;;;;6160730;23;20021;-83
2023/12/08 06:07:50;;;;;;;36.83;17.38;;;1.20;99.90;;;;;;6160586;23;20078;-83
2023/12/08 06:10:16;;;;;;;37.45;17.05;;;1.10;99.90;;;;;;6160364;23;20435;-83
2023/12/08 06:12:42;;;;;;;38.70;18.58;;;1.10;99.90;;;;;;6160686;23;20021;-83
2023/12/08 06:15:09;;;;;;;45.92;20.77;;;1.20;99.90;;;;;;6160662;23;20027;-83
2023/12/08 06:17:36;;;;;;;38.90;17.63;;;1.10;99.90;;;;;;6160260;23;20021;-83
2023/12/08 06:20:04;;;;;;;36.80;16.85;;;1.10;99.90;;;;;;6160596;23;20018;-83
2023/12/08 06:22:30;;;;;;;34.50;17.08;;;1.20;99.90;;;;;;6160505;23;20013;-83
2023/12/08 06:24:56;;;;;;;38.78;18.35;;;1.10;99.90;;;;;;6160294;23;20024;-83
2023/12/08 06:27:22;;;;;;;42.45;19.77;;;1.10;99.90;;;;;;6160513;23;20017;-82
2023/12/08 06:29:50;;;;;;;36.50;17.70;;;1.10;99.90;;;;;;6160705;23;20017;-82
2023/12/08 06:32:16;;;;;;;40.25;18.88;;;1.10;99.90;;;;;;6160323;23;20341;-82
2023/12/08 06:34:42;;;;;;;38.55;17.40;;;1.10;99.90;;;;;;6160423;23;20021;-83
2023/12/08 06:37:08;;;;;;;39.42;18.95;;;1.10;99.90;;;;;;6160426;23;20010;-83
2023/12/08 06:39:33;;;;;;;41.38;18.95;;;1.10;99.90;;;;;;6160486;23;20028;-83
2023/12/08 06:41:59;;;;;;;36.72;17.52;;;1.00;99.90;;;;;;6160469;23;20017;-83
2023/12/08 06:44:25;;;;;;;41.83;18.70;;;1.10;99.90;;;;;;6160457;23;20017;-83
2023/12/08 06:46:50;;;;;;;43.13;18.35;;;1.10;99.90;;;;;;6160351;23;20040;-82
2023/12/08 06:49:17;;;;;;;40.33;18.92;;;1.00;99.90;;;;;;6130343;23;20013;-83
2023/12/08 06:51:42;;;;;;;37.95;17.77;;;1.00;99.90;;;;;;6130349;23;20021;-83
2023/12/08 06:54:08;;;;;;;37.97;18.10;;;1.00;99.90;;;;;;6130389;23;20014;-83
2023/12/08 06:56:34;;;;;;;42.38;20.00;;;1.10;99.90;;;;;;6130392;23;20021;-83
2023/12/08 06:58:59;;;;;;;34.95;16.80;;;1.00;99.90;;;;;;6130609;23;20022;-83
2023/12/08 07:01:25;;;;;;;38.15;18.08;;;1.00;99.90;;;;;;6156612;23;20021;-83
2023/12/08 07:03:50;;;;;;;44.33;17.98;;;1.00;99.90;;;;;;6130630;23;20092;-82
2023/12/08 07:06:16;;;;;;;38.47;17.55;;;1.00;99.90;;;;;;6130609;23;20020;-82
2023/12/08 07:08:42;;;;;;;43.33;18.48;;;1.00;99.90;;;;;;6130423;23;20087;-83
2023/12/08 07:11:10;;;;;;;39.97;17.33;;;1.00;99.90;;;;;;6130443;23;20032;-83
2023/12/08 07:13:36;;;;;;;37.95;18.08;;;1.10;99.90;;;;;;6130400;23;20353;-82
2023/12/08 07:16:02;;;;;;;41.60;17.90;;;1.10;99.90;;;;;;6130428;23;20453;-83
2023/12/08 07:18:27;;;;;;;40.17;18.98;;;1.10;99.90;;;;;;6130485;23;20024;-82
2023/12/08 07:20:54;;;;;;;38.78;17.45;;;1.10;99.90;;;;;;6130496;23;20017;-82
2023/12/08 07:23:19;;;;;;;42.58;19.73;;;1.10;99.90;;;;;;6130476;23;20358;-82
2023/12/08 07:25:45;;;;;;;39.47;18.63;;;1.10;99.90;;;;;;6130472;23;20021;-82
2023/12/08 07:28:11;;;;;;;40.97;18.20;;;1.10;99.90;;;;;;6130410;23;20097;-82
2023/12/08 07:30:37;;;;;;;42.08;19.13;;;1.10;99.90;;;;;;6130360;23;20028;-82
2023/12/08 07:33:04;;;;;;;39.88;19.52;;;1.10;99.90;;;;;;6130307;23;20450;-82
2023/12/08 07:35:29;;;;;;;43.17;19.00;;;1.10;99.90;;;;;;6130295;23;20025;-83
2023/12/08 07:37:55;;;;;;;48.10;19.80;;;1.10;99.90;;;;;;6130308;23;20095;-83
2023/12/08 07:40:21;;;;;;;43.50;19.10;;;1.00;99.90;;;;;;6130276;23;20021;-83
2023/12/08 07:42:46;;;;;;;46.83;20.05;;;1.10;99.90;;;;;;6130350;23;20024;-83
2023/12/08 07:45:12;;;;;;;43.65;19.92;;;1.00;99.90;;;;;;6130138;23;20025;-83
2023/12/08 07:47:40;;;;;;;39.53;17.67;;;1.10;99.90;;;;;;6134610;23;20041;-83
2023/12/08 07:50:06;;;;;;;45.25;20.38;;;1.10;99.90;;;;;;6154462;23;20501;-83
2023/12/08 07:52:32;;;;;;;43.88;19.35;;;1.10;99.90;;;;;;6154775;23;20108;-83
2023/12/08 07:54:58;;;;;;;43.72;19.77;;;1.10;99.90;;;;;;6154701;23;20060;-83
2023/12/08 07:57:23;;;;;;;49.28;21.38;;;1.10;99.90;;;;;;6154750;23;20013;-83
2023/12/08 07:59:49;;;;;;;49.33;23.25;;;1.10;99.90;;;;;;6154571;23;20084;-82
2023/12/08 08:02:14;;;;;;;38.05;18.65;;;1.10;99.90;;;;;;6154694;23;20013;-82
2023/12/08 08:04:41;;;;;;;44.80;20.38;;;1.10;99.90;;;;;;6154699;23;20072;-82
2023/12/08 08:07:06;;;;;;;46.15;20.13;;;1.10;99.90;;;;;;6156131;23;20354;-84
2023/12/08 08:09:32;;;;;;;49.33;21.25;;;1.10;99.90;;;;;;6154577;23;20023;-81
2023/12/08 08:11:58;;;;;;;46.42;22.15;;;1.10;99.90;;;;;;6156339;23;20015;-84
2023/12/08 08:14:23;;;;;;;51.40;24.58;;;1.10;99.90;;;;;;6154553;23;20389;-85
2023/12/08 08:16:49;;;;;;;45.72;21.25;;;1.10;99.90;;;;;;6154594;23;20021;-85
2023/12/08 08:19:15;;;;;;;52.55;22.55;;;1.10;99.90;;;;;;6154205;23;20021;-84
2023/12/08 08:21:42;;;;;;;45.15;19.98;;;1.10;99.90;;;;;;6152496;23;20580;-84
2023/12/08 08:24:08;;;;;;;44.60;20.33;;;1.10;99.90;;;;;;6153466;23;20022;-84
2023/12/08 08:26:33;;;;;;;43.63;20.48;;;1.10;99.90;;;;;;6153936;23;20021;-84
2023/12/08 08:28:59;;;;;;;44.47;20.15;;;1.10;99.90;;;;;;6154177;23;20022;-84
2023/12/08 08:31:25;;;;;;;44.33;19.17;;;1.10;99.90;;;;;;6154316;23;20029;-84
2023/12/08 08:33:50;;;;;;;45.42;19.42;;;1.10;99.90;;;;;;6154273;23;20016;-83
2023/12/08 08:36:16;;;;;;;42.30;19.20;;;1.10;99.90;;;;;;6156118;23;20017;-82
2023/12/08 08:38:42;;;;;;;45.17;18.35;;;1.10;99.90;;;;;;6154315;23;20014;-83
2023/12/08 08:41:08;;;;;;;41.28;18.80;;;1.10;99.90;;;;;;6154277;23;20018;-84
2023/12/08 08:43:34;;;;;;;42.88;20.42;;;1.10;99.90;;;;;;6156093;23;20445;-84
2023/12/08 08:45:59;;;;;;;49.15;18.73;;;1.10;99.90;;;;;;6154341;23;20025;-84
2023/12/08 08:48:25;;;;;;;41.50;18.02;;;1.10;99.90;;;;;;6154001;23;20014;-84
2023/12/08 08:50:53;;;;;;;46.35;20.27;;;1.10;99.90;;;;;;6154122;23;20029;-83
2023/12/08 08:53:19;;;;;;;49.60;21.23;;;1.10;99.90;;;;;;6153638;23;20425;-84
2023/12/08 08:55:45;;;;;;;45.13;21.23;;;1.10;99.90;;;;;;6153693;23;20021;-83
2023/12/08 08:58:11;;;;;;;54.90;23.08;;;1.10;99.90;;;;;;6155093;23;20025;-83
2023/12/08 09:00:37;;;;;;;55.83;24.98;;;1.20;99.90;;;;;;6154182;23;20013;-85
2023/12/08 09:07:01;;;;;;;45.42;19.80;;;1.20;99.90;;;;;;6244382;23;20016;-85
2023/12/08 09:09:30;;;;;;;42.58;18.63;;;1.20;99.90;;;;;;6243889;23;20514;-85
2023/12/08 09:11:55;;;;;;;52.47;21.75;;;1.20;99.90;;;;;;6244156;23;20138;-85
2023/12/08 09:20:04;;;;;;;43.92;18.98;;;1.30;99.90;;;;;;6247739;23;20127;-85
2023/12/08 09:22:29;;;;;;;43.92;18.13;;;1.30;99.90;;;;;;6245830;23;20020;-85
2023/12/08 09:24:55;;;;;;;47.75;20.20;;;1.30;99.90;;;;;;6245837;23;20020;-85
2023/12/08 09:27:21;;;;;;;48.25;20.58;;;1.30;99.90;;;;;;6245527;23;20039;-87
2023/12/08 09:30:05;;;;;;;46.80;19.77;;;1.30;99.90;;;;;;6247229;23;20023;-84
2023/12/08 09:32:31;;;;;;;50.90;21.17;;;1.30;99.90;;;;;;6245494;23;20359;-86
2023/12/08 09:34:57;;;;;;;49.53;18.90;;;1.30;99.90;;;;;;6245518;23;20052;-84
2023/12/08 09:37:22;;;;;;;48.88;21.30;;;1.30;99.90;;;;;;6245543;23;20066;-83
2023/12/08 09:39:48;;;;;;;49.20;20.75;;;1.40;99.90;;;;;;6245809;23;20020;-85
2023/12/08 09:42:21;;;;;;;50.47;20.98;;;1.30;99.90;;;;;;6245821;23;20020;-84
2023/12/08 09:44:48;;;;;;;42.90;18.55;;;1.40;99.90;;;;;;6245950;23;20071;-86
2023/12/08 09:47:17;;;;;;;55.30;23.58;;;1.40;99.90;;;;;;6245854;23;20023;-84
2023/12/08 09:49:49;;;;;;;51.10;23.23;;;1.40;99.90;;;;;;6245589;23;20020;-85
2023/12/08 09:52:15;;;;;;;48.55;20.45;;;1.40;99.90;;;;;;6246032;23;20043;-87
2023/12/08 09:54:42;;;;;;;51.40;20.13;;;1.50;99.90;;;;;;6245347;23;20020;-86
2023/12/08 09:57:13;;;;;;;48.67;19.77;;;1.50;99.90;;;;;;6245495;23;20012;-86
2023/12/08 09:59:41;;;;;;;44.55;19.38;;;1.50;99.90;;;;;;6245543;23;20012;-87
2023/12/08 10:02:10;;;;;;;46.33;21.00;;;1.50;99.90;;;;;;6245642;23;20031;-85
2023/12/08 10:04:35;;;;;;;45.40;21.48;;;1.50;99.90;;;;;;6245307;23;20012;-85
2023/12/08 10:07:06;;;;;;;46.33;20.75;;;1.50;99.90;;;;;;6245640;23;20023;-85
2023/12/08 10:09:32;;;;;;;54.75;23.20;;;1.50;99.90;;;;;;6220633;23;20016;-85
2023/12/08 10:11:58;;;;;;;48.72;21.48;;;1.60;99.90;;;;;;6245513;23;20444;-85
2023/12/08 10:14:25;;;;;;;49.90;20.08;;;1.60;99.90;;;;;;6245883;23;20016;-86
2023/12/08 10:16:51;;;;;;;45.60;20.05;;;1.70;99.90;;;;;;6245793;23;20440;-85
2023/12/08 10:19:22;;;;;;;47.55;20.17;;;1.70;99.90;;;;;;6245348;23;20078;-86
2023/12/08 10:22:14;;;;;;;45.25;19.35;;;1.70;99.90;;;;;;6245916;23;20023;-86
2023/12/08 10:24:41;;;;;;;45.20;18.92;;;1.70;99.90;;;;;;6241105;23;20027;-88
2023/12/08 10:27:11;;;;;;;52.25;23.52;;;1.70;99.90;;;;;;6245420;23;20384;-85
2023/12/08 10:29:37;;;;;;;53.65;24.10;;;1.70;99.90;;;;;;6245268;23;20066;-85
2023/12/08 10:32:06;;;;;;;51.17;22.20;;;1.70;99.90;;;;;;6245390;23;20019;-86
2023/12/08 10:34:32;;;;;;;51.38;23.80;;;1.70;99.90;;;;;;6245224;23;20502;-85
2023/12/08 10:36:57;;;;;;;48.95;21.58;;;1.70;99.90;;;;;;6245375;23;20016;-85
2023/12/08 10:39:27;;;;;;;64.57;27.35;;;1.70;99.90;;;;;;6245243;23;20460;-85
2023/12/08 10:44:24;;;;;;;48.28;21.42;;;1.80;99.90;;;;;;6184560;23;20056;-85
2023/12/08 10:46:51;;;;;;;45.25;20.83;;;1.80;99.90;;;;;;6159975;23;20021;-86
2023/12/08 10:49:34;;;;;;;49.15;20.65;;;1.80;99.90;;;;;;6159771;23;20017;-85
2023/12/08 10:52:10;;;;;;;50.03;20.70;;;1.80;99.90;;;;;;6160396;23;20083;-86
2023/12/08 10:54:37;;;;;;;50.03;22.17;;;1.90;99.90;;;;;;6159726;23;20110;-86
2023/12/08 10:57:17;;;;;;;46.47;20.67;;;1.90;99.90;;;;;;6159891;23;20013;-85
2023/12/08 10:59:46;;;;;;;57.33;24.02;;;1.90;99.90;;;;;;6160009;23;20028;-86
2023/12/08 11:02:31;;;;;;;53.22;23.60;;;1.90;99.90;;;;;;6159856;23;20013;-86
2023/12/08 11:05:08;;;;;;;50.13;21.30;;;1.90;99.90;;;;;;6109632;23;20541;-86
2023/12/08 11:07:42;;;;;;;45.28;20.17;;;1.90;99.90;;;;;;6159843;23;20054;-86
2023/12/08 11:10:49;;;;;;;55.55;22.27;;;1.90;99.90;;;;;;6160306;23;20024;-85
2023/12/08 11:13:40;;;;;;;43.17;18.30;;;2.00;99.90;;;;;;6159751;23;20017;-87
2023/12/08 11:16:18;;;;;;;49.05;20.38;;;2.00;99.90;;;;;;6159679;23;20017;-86
2023/12/08 11:18:45;;;;;;;46.95;21.45;;;2.00;99.90;;;;;;6159833;23;20563;-86
2023/12/08 11:21:11;;;;;;;48.63;20.45;;;2.00;99.90;;;;;;6159557;23;20025;-86
2023/12/08 11:23:38;;;;;;;45.83;20.75;;;1.90;99.90;;;;;;6159474;23;20024;-87
2023/12/08 11:26:26;;;;;;;47.13;20.92;;;2.00;99.90;;;;;;6159554;23;20036;-87
2023/12/08 11:29:07;;;;;;;47.45;21.42;;;2.00;99.90;;;;;;6159525;23;20017;-88
2023/12/08 11:31:48;;;;;;;46.97;20.27;;;2.00;99.90;;;;;;6159537;23;20024;-85
2023/12/08 11:34:52;;;;;;;51.72;21.98;;;2.00;99.90;;;;;;6159399;23;20048;-85
2023/12/08 11:37:20;;;;;;;47.17;22.27;;;2.00;99.90;;;;;;6159527;23;20024;-85
2023/12/08 11:39:46;;;;;;;48.15;20.42;;;2.00;99.90;;;;;;6158799;23;20460;-86
2023/12/08 11:42:16;;;;;;;50.90;21.38;;;2.00;99.90;;;;;;6159015;23;20047;-86
2023/12/08 11:44:46;;;;;;;43.50;19.30;;;2.00;99.90;;;;;;6158900;23;20031;-86
2023/12/08 11:47:16;;;;;;;56.50;21.85;;;2.10;99.90;;;;;;6159422;23;20024;-86
2023/12/08 11:49:44;;;;;;;50.65;21.20;;;2.10;99.90;;;;;;6181952;22;20076;-86
2023/12/08 11:52:17;;;;;;;50.33;22.42;;;2.10;99.90;;;;;;6243629;23;20016;-86
2023/12/08 11:55:20;;;;;;;;;;;2.00;99.90;;;;;;6245041;23;20341;-84
2023/12/08 11:58:17;;;;;;;48.42;20.20;;;2.10;99.90;;;;;;6244757;23;19916;-85
2023/12/08 12:01:16;;;;;;;52.70;21.23;;;2.10;99.90;;;;;;6244682;23;20019;-86
2023/12/08 12:04:08;;;;;;;49.70;20.27;;;2.10;99.90;;;;;;6099192;23;20053;-86
2023/12/08 12:07:09;;;;;;;60.58;24.85;;;2.10;99.90;;;;;;6146281;23;20055;-86
2023/12/08 12:09:53;;;;;;;59.22;24.83;;;2.10;99.90;;;;;;6242890;23;20039;-85
2023/12/08 12:12:32;;;;;;;56.85;25.90;;;2.10;99.90;;;;;;6244554;23;20444;-85
2023/12/08 12:15:10;;;;;;;55.65;22.58;;;2.10;99.90;;;;;;6244442;23;20016;-85
2023/12/08 12:17:37;;;;;;;55.47;23.30;;;2.20;99.90;;;;;;6244502;23;20020;-86
2023/12/08 12:20:08;;;;;;;50.72;23.05;;;2.20;99.90;;;;;;6244109;23;20321;-87
2023/12/08 12:22:46;;;;;;;51.78;20.58;;;2.20;99.90;;;;;;6242370;23;20035;-86
2023/12/08 12:25:46;;;;;;;57.65;21.80;;;2.20;99.90;;;;;;6244751;23;20436;-86
2023/12/08 12:28:17;;;;;;;60.35;24.55;;;2.20;99.90;;;;;;6217661;23;20023;-87
2023/12/08 12:37:45;;;;;;;53.38;22.02;;;2.20;99.90;;;;;;6185622;23;20027;-86
2023/12/08 12:40:19;;;;;;;61.33;23.95;;;2.30;99.90;;;;;;6159035;23;20028;-87
2023/12/08 12:42:58;;;;;;;67.75;24.98;;;2.30;99.90;;;;;;6159355;23;20021;-90
2023/12/08 12:45:37;;;;;;;57.35;22.83;;;2.30;99.90;;;;;;6152727;23;20041;-84
2023/12/08 12:48:25;;;;;;;61.70;24.40;;;2.30;99.90;;;;;;6155455;23;20021;-88
2023/12/08 12:50:51;;;;;;;65.13;25.38;;;2.30;99.90;;;;;;6155089;23;20022;-86
2023/12/08 12:53:17;;;;;;;65.03;23.75;;;2.30;99.90;;;;;;6130444;23;20101;-86
2023/12/08 12:56:38;;;;;;;70.47;25.98;;;2.30;99.90;;;;;;6130319;23;20049;-85
2023/12/08 12:59:16;;;;;;;64.35;24.40;;;2.40;99.90;;;;;;6155057;23;20374;-86
2023/12/08 13:01:57;;;;;;;63.65;23.40;;;2.40;99.90;;;;;;6130362;23;20021;-85
2023/12/08 13:05:10;;;;;;;66.40;26.25;;;2.40;99.90;;;;;;6154822;23;20022;-87
2023/12/08 13:07:36;;;;;;;68.93;25.73;;;2.50;99.90;;;;;;6154940;23;20057;-79
2023/12/08 13:10:21;;;;;;;71.60;26.35;;;2.50;99.90;;;;;;6130235;23;20021;-86
2023/12/08 13:12:47;;;;;;;73.70;26.08;;;2.50;99.90;;;;;;6130397;23;20438;-83
2023/12/08 13:15:27;;;;;;;70.32;25.98;;;2.50;99.90;;;;;;6130449;23;20469;-89
2023/12/08 13:18:08;;;;;;;75.05;28.33;;;2.50;99.90;;;;;;6160944;23;20504;-84
2023/12/08 13:20:49;;;;;;;71.15;26.85;;;2.50;99.90;;;;;;6160630;23;20029;-84